createdAt,value
2018-08-23T04:00:38.495Z,0.00
2018-08-23T04:01:38.458Z,0.00
2018-08-23T04:02:38.448Z,0.00
2018-08-23T04:03:38.476Z,0.00
2018-08-23T04:04:38.439Z,0.00
2018-08-23T04:05:38.414Z,0.00
2018-08-23T04:06:38.440Z,0.00
2018-08-23T04:07:38.415Z,0.00
2018-08-23T04:08:38.398Z,0.00
2018-08-23T04:09:38.370Z,0.00
2018-08-23T04:10:38.363Z,0.00
2018-08-23T04:11:38.350Z,0.00
2018-08-23T04:12:38.333Z,0.00
2018-08-23T04:13:38.333Z,0.00
2018-08-23T04:14:38.340Z,0.00
2018-08-23T04:15:38.298Z,5.62
2018-08-23T04:16:38.360Z,5.62
2018-08-23T04:17:38.282Z,5.62
2018-08-23T04:18:38.307Z,5.62
2018-08-23T04:19:38.257Z,5.62
2018-08-23T04:20:38.260Z,5.62
2018-08-23T04:21:38.232Z,5.62
2018-08-23T04:22:38.227Z,5.62
2018-08-23T04:23:38.224Z,5.62
2018-08-23T04:24:38.200Z,5.62
2018-08-23T04:25:38.187Z,11.25
2018-08-23T04:26:38.185Z,11.25
2018-08-23T04:27:38.165Z,11.25
2018-08-23T04:28:38.167Z,11.25
2018-08-23T04:29:38.143Z,11.25
2018-08-23T04:30:38.138Z,11.25
2018-08-23T04:31:38.125Z,11.25
2018-08-23T04:32:38.112Z,16.88
2018-08-23T04:33:38.113Z,16.88
2018-08-23T04:34:38.089Z,16.88
2018-08-23T04:35:38.086Z,16.88
2018-08-23T04:36:38.067Z,16.88
2018-08-23T04:37:38.059Z,16.88
2018-08-23T04:38:38.058Z,16.88
2018-08-23T04:39:38.034Z,22.50
2018-08-23T04:40:38.022Z,22.50
2018-08-23T04:41:38.012Z,22.50
2018-08-23T04:42:38.009Z,22.50
2018-08-23T04:43:38.004Z,22.50
2018-08-23T04:44:37.980Z,22.50
2018-08-23T04:45:37.966Z,28.12
2018-08-23T04:46:37.956Z,28.12
2018-08-23T04:47:37.945Z,28.12
2018-08-23T04:48:37.948Z,28.12
2018-08-23T04:49:37.931Z,28.12
2018-08-23T04:50:37.920Z,28.12
2018-08-23T04:51:37.927Z,33.75
2018-08-23T04:52:37.889Z,33.75
2018-08-23T04:53:37.889Z,33.75
2018-08-23T04:54:37.885Z,33.75
2018-08-23T04:55:37.890Z,33.75
2018-08-23T04:56:37.849Z,33.75
2018-08-23T04:57:37.837Z,39.38
2018-08-23T04:58:37.835Z,39.38
2018-08-23T04:59:37.812Z,39.38
2018-08-23T05:00:37.801Z,39.38
2018-08-23T05:01:37.793Z,39.38
2018-08-23T05:02:37.785Z,39.38
2018-08-23T05:03:37.781Z,45.00
2018-08-23T05:04:37.758Z,45.00
2018-08-23T05:05:37.744Z,45.00
2018-08-23T05:06:37.733Z,45.00
2018-08-23T05:07:37.725Z,45.00
2018-08-23T05:08:37.766Z,50.62
2018-08-23T05:09:37.702Z,50.62
2018-08-23T05:10:37.693Z,50.62
2018-08-23T05:11:37.684Z,50.62
2018-08-23T05:12:37.672Z,50.62
2018-08-23T05:13:37.668Z,56.25
2018-08-23T05:14:37.645Z,56.25
2018-08-23T05:15:37.633Z,56.25
2018-08-23T05:16:37.627Z,56.25
2018-08-23T05:17:37.614Z,56.25
2018-08-23T05:18:37.616Z,56.25
2018-08-23T05:19:37.594Z,61.88
2018-08-23T05:20:37.578Z,61.88
2018-08-23T05:21:37.572Z,61.88
2018-08-23T05:22:37.565Z,61.88
2018-08-23T05:23:37.557Z,61.88
2018-08-23T05:24:37.542Z,61.88
2018-08-23T05:25:37.533Z,67.50
2018-08-23T05:26:37.512Z,67.50
2018-08-23T05:27:37.506Z,67.50
2018-08-23T05:28:37.509Z,67.50
2018-08-23T05:29:37.478Z,67.50
2018-08-23T05:30:37.469Z,67.50
2018-08-23T05:31:37.454Z,73.12
2018-08-23T05:32:37.447Z,73.12
2018-08-23T05:33:37.468Z,73.12
2018-08-23T05:34:37.425Z,73.12
2018-08-23T05:35:37.418Z,73.12
2018-08-23T05:36:37.402Z,78.75
2018-08-23T05:37:37.460Z,78.75
2018-08-23T05:38:37.381Z,78.75
2018-08-23T05:39:37.383Z,78.75
2018-08-23T05:40:37.358Z,78.75
2018-08-23T05:41:37.348Z,78.75
2018-08-23T05:42:37.346Z,78.75
2018-08-23T05:43:37.321Z,84.38
2018-08-23T05:44:37.330Z,84.38
2018-08-23T05:45:37.312Z,84.38
2018-08-23T05:46:37.294Z,84.38
2018-08-23T05:47:37.322Z,84.38
2018-08-23T05:48:37.271Z,90.00
2018-08-23T05:49:37.270Z,90.00
2018-08-23T05:50:37.245Z,90.00
2018-08-23T05:51:37.237Z,90.00
2018-08-23T05:52:37.226Z,90.00
2018-08-23T05:53:37.212Z,90.00
2018-08-23T05:54:37.214Z,95.62
2018-08-23T05:55:37.195Z,95.62
2018-08-23T05:56:37.184Z,95.62
2018-08-23T05:57:37.170Z,95.62
2018-08-23T05:58:37.159Z,95.62
2018-08-23T05:59:37.160Z,95.62
2018-08-23T06:00:37.136Z,95.62
2018-08-23T06:01:37.127Z,101.25
2018-08-23T06:02:37.132Z,101.25
2018-08-23T06:03:37.109Z,101.25
2018-08-23T06:04:37.106Z,101.25
2018-08-23T06:05:37.081Z,101.25
2018-08-23T06:06:37.066Z,101.25
2018-08-23T06:07:37.064Z,106.88
2018-08-23T06:08:37.047Z,106.88
2018-08-23T06:09:37.059Z,106.88
2018-08-23T06:10:37.026Z,106.88
2018-08-23T06:11:37.032Z,106.88
2018-08-23T06:12:37.069Z,112.50
2018-08-23T06:13:36.990Z,112.50
2018-08-23T06:14:36.997Z,112.50
2018-08-23T06:15:36.969Z,112.50
2018-08-23T06:16:36.965Z,112.50
2018-08-23T06:17:36.948Z,118.12
2018-08-23T06:18:36.936Z,118.12
2018-08-23T06:19:36.939Z,118.12
2018-08-23T06:20:36.932Z,118.12
2018-08-23T06:21:36.915Z,123.75
2018-08-23T06:22:36.902Z,123.75
2018-08-23T06:23:36.884Z,123.75
2018-08-23T06:24:36.883Z,123.75
2018-08-23T06:25:36.875Z,129.38
2018-08-23T06:26:36.846Z,146.25
2018-08-23T06:27:36.840Z,213.75
2018-08-23T06:28:36.828Z,286.88
2018-08-23T06:29:36.825Z,303.75
2018-08-23T06:30:36.813Z,309.38
2018-08-23T06:31:36.796Z,309.38
2018-08-23T06:32:36.779Z,315.00
2018-08-23T06:33:36.859Z,320.62
2018-08-23T06:34:36.769Z,320.62
2018-08-23T06:35:36.772Z,326.25
2018-08-23T06:36:36.739Z,331.88
2018-08-23T06:37:36.725Z,331.88
2018-08-23T06:38:36.733Z,337.50
2018-08-23T06:39:36.716Z,343.12
2018-08-23T06:40:36.696Z,343.12
2018-08-23T06:41:36.685Z,343.12
2018-08-23T06:42:36.678Z,354.38
2018-08-23T06:43:36.660Z,354.38
2018-08-23T06:44:36.684Z,354.38
2018-08-23T06:45:36.636Z,354.38
2018-08-23T06:46:36.624Z,360.00
2018-08-23T06:47:36.614Z,365.62
2018-08-23T06:48:36.603Z,365.62
2018-08-23T06:49:36.603Z,371.25
2018-08-23T06:50:36.582Z,376.88
2018-08-23T06:51:36.569Z,376.88
2018-08-23T06:52:36.569Z,382.50
2018-08-23T06:53:36.544Z,388.12
2018-08-23T06:54:36.547Z,388.12
2018-08-23T06:55:36.525Z,393.75
2018-08-23T06:56:36.515Z,399.38
2018-08-23T06:57:36.502Z,410.62
2018-08-23T06:58:36.494Z,405.00
2018-08-23T06:59:36.493Z,410.62
2018-08-23T07:00:36.474Z,410.62
2018-08-23T07:01:36.461Z,416.25
2018-08-23T07:02:36.448Z,416.25
2018-08-23T07:03:36.447Z,421.88
2018-08-23T07:04:36.439Z,427.50
2018-08-23T07:05:36.461Z,433.12
2018-08-23T07:06:36.442Z,433.12
2018-08-23T07:07:36.392Z,438.75
2018-08-23T07:08:36.393Z,444.38
2018-08-23T07:09:36.387Z,450.00
2018-08-23T07:10:36.363Z,450.00
2018-08-23T07:11:36.379Z,450.00
2018-08-23T07:12:36.339Z,455.62
2018-08-23T07:13:36.326Z,455.62
2018-08-23T07:14:36.326Z,455.62
2018-08-23T07:15:36.325Z,461.25
2018-08-23T07:16:36.291Z,461.25
2018-08-23T07:17:36.366Z,466.88
2018-08-23T07:18:36.273Z,472.50
2018-08-23T07:19:36.368Z,478.12
2018-08-23T07:20:36.251Z,483.75
2018-08-23T07:21:36.238Z,483.75
2018-08-23T07:22:36.279Z,483.75
2018-08-23T07:23:36.221Z,489.38
2018-08-23T07:24:36.216Z,495.00
2018-08-23T07:25:36.198Z,489.38
2018-08-23T07:26:36.261Z,495.00
2018-08-23T07:27:36.183Z,495.00
2018-08-23T07:28:36.161Z,495.00
2018-08-23T07:29:36.159Z,500.62
2018-08-23T07:30:36.145Z,500.62
2018-08-23T07:31:36.132Z,506.25
2018-08-23T07:32:36.150Z,506.25
2018-08-23T07:33:36.125Z,506.25
2018-08-23T07:34:36.110Z,500.62
2018-08-23T07:35:36.086Z,506.25
2018-08-23T07:36:36.075Z,511.88
2018-08-23T07:37:36.071Z,511.88
2018-08-23T07:38:36.056Z,517.50
2018-08-23T07:39:36.055Z,523.12
2018-08-23T07:40:36.045Z,528.75
2018-08-23T07:41:36.021Z,534.38
2018-08-23T07:42:36.011Z,540.00
2018-08-23T07:43:35.999Z,545.62
2018-08-23T07:44:35.987Z,545.62
2018-08-23T07:45:35.991Z,545.62
2018-08-23T07:46:35.965Z,556.88
2018-08-23T07:47:35.957Z,562.50
2018-08-23T07:48:36.011Z,573.75
2018-08-23T07:49:35.951Z,573.75
2018-08-23T07:50:35.935Z,585.00
2018-08-23T07:51:35.912Z,770.62
2018-08-23T07:52:35.917Z,770.62
2018-08-23T07:53:35.889Z,652.50
2018-08-23T07:54:35.881Z,618.75
2018-08-23T07:55:35.881Z,618.75
2018-08-23T07:56:35.859Z,635.62
2018-08-23T07:57:35.847Z,635.62
2018-08-23T07:58:35.835Z,630.00
2018-08-23T07:59:35.823Z,630.00
2018-08-23T08:00:35.828Z,641.25
2018-08-23T08:01:35.801Z,641.25
2018-08-23T08:02:35.790Z,646.88
2018-08-23T08:03:35.780Z,646.88
2018-08-23T08:04:35.773Z,646.88
2018-08-23T08:05:35.767Z,658.12
2018-08-23T08:06:35.747Z,658.12
2018-08-23T08:07:35.749Z,669.38
2018-08-23T08:08:35.729Z,669.38
2018-08-23T08:09:35.729Z,686.25
2018-08-23T08:10:35.717Z,781.88
2018-08-23T08:11:35.693Z,894.38
2018-08-23T08:12:35.685Z,905.62
2018-08-23T08:13:35.677Z,928.12
2018-08-23T08:14:35.662Z,956.25
2018-08-23T08:15:35.661Z,956.25
2018-08-23T08:16:35.640Z,1012.50
2018-08-23T08:17:35.630Z,1018.12
2018-08-23T08:18:35.623Z,1018.12
2018-08-23T08:19:35.608Z,1068.75
2018-08-23T08:20:35.620Z,1057.50
2018-08-23T08:21:35.654Z,1057.50
2018-08-23T08:22:35.576Z,1040.62
2018-08-23T08:23:35.565Z,1046.25
2018-08-23T08:24:35.554Z,1091.25
2018-08-23T08:25:35.553Z,1108.12
2018-08-23T08:26:35.534Z,1051.88
2018-08-23T08:27:35.523Z,973.12
2018-08-23T08:28:35.513Z,900.00
2018-08-23T08:29:35.500Z,1001.25
2018-08-23T08:30:35.502Z,1164.38
2018-08-23T08:31:35.477Z,1192.50
2018-08-23T08:32:35.466Z,1181.25
2018-08-23T08:33:35.454Z,1226.25
2018-08-23T08:34:35.446Z,1231.88
2018-08-23T08:35:35.451Z,1265.62
2018-08-23T08:36:35.426Z,1575.00
2018-08-23T08:37:35.413Z,2435.62
2018-08-23T08:38:35.401Z,2812.50
2018-08-23T08:39:35.392Z,3543.75
2018-08-23T08:40:35.393Z,3605.62
2018-08-23T08:41:35.378Z,3650.62
2018-08-23T08:42:35.360Z,3723.75
2018-08-23T08:43:35.348Z,3695.62
2018-08-23T08:44:35.339Z,3723.75
2018-08-23T08:45:35.339Z,3802.50
2018-08-23T08:46:35.315Z,3712.50
2018-08-23T08:47:35.306Z,3656.25
2018-08-23T08:48:35.296Z,3808.12
2018-08-23T08:49:35.283Z,3915.00
2018-08-23T08:50:35.340Z,4016.25
2018-08-23T08:51:35.262Z,3926.25
2018-08-23T08:52:35.253Z,3870.00
2018-08-23T08:53:35.240Z,3999.38
2018-08-23T08:54:35.230Z,3954.38
2018-08-23T08:55:35.228Z,4100.62
2018-08-23T08:56:35.223Z,4168.12
2018-08-23T08:57:35.200Z,4095.00
2018-08-23T08:58:35.185Z,4162.50
2018-08-23T08:59:35.175Z,4201.88
2018-08-23T09:00:35.178Z,4201.88
2018-08-23T09:01:35.152Z,4286.25
2018-08-23T09:02:35.143Z,4387.50
2018-08-23T09:03:35.133Z,4314.38
2018-08-23T09:04:35.120Z,4286.25
2018-08-23T09:05:35.121Z,4410.00
2018-08-23T09:06:35.100Z,4511.25
2018-08-23T09:07:35.090Z,4438.12
2018-08-23T09:08:35.076Z,4488.75
2018-08-23T09:09:35.067Z,4640.62
2018-08-23T09:10:35.066Z,4618.12
2018-08-23T09:11:35.044Z,4775.62
2018-08-23T09:12:35.033Z,4533.75
2018-08-23T09:13:35.024Z,4674.38
2018-08-23T09:14:35.018Z,4719.38
2018-08-23T09:15:35.012Z,4623.75
2018-08-23T09:16:34.993Z,4595.62
2018-08-23T09:17:34.980Z,4747.50
2018-08-23T09:18:34.973Z,4561.88
2018-08-23T09:19:34.971Z,2137.50
2018-08-23T09:20:34.992Z,1378.12
2018-08-23T09:21:34.937Z,4038.75
2018-08-23T09:22:34.936Z,3555.00
2018-08-23T09:23:34.915Z,3588.75
2018-08-23T09:24:34.904Z,3555.00
2018-08-23T09:25:34.901Z,3549.38
2018-08-23T09:26:34.881Z,3611.25
2018-08-23T09:27:34.913Z,3605.62
2018-08-23T09:28:34.888Z,3543.75
2018-08-23T09:29:34.849Z,3571.88
2018-08-23T09:30:34.848Z,3577.50
2018-08-23T09:31:34.826Z,3493.12
2018-08-23T09:32:34.820Z,3521.25
2018-08-23T09:33:34.805Z,3510.00
2018-08-23T09:34:34.800Z,3549.38
2018-08-23T09:35:34.798Z,3498.75
2018-08-23T09:36:34.772Z,3600.00
2018-08-23T09:37:34.765Z,3566.25
2018-08-23T09:38:34.756Z,438.75
2018-08-23T09:39:34.744Z,365.62
2018-08-23T09:40:34.754Z,303.75
2018-08-23T09:41:34.719Z,3352.50
2018-08-23T09:42:34.709Z,3476.25
2018-08-23T09:43:34.698Z,3532.50
2018-08-23T09:44:34.686Z,3571.88
2018-08-23T09:45:34.675Z,438.75
2018-08-23T09:46:34.675Z,315.00
2018-08-23T09:47:34.654Z,331.88
2018-08-23T09:48:34.642Z,365.62
2018-08-23T09:49:34.633Z,832.50
2018-08-23T09:50:34.675Z,3583.12
2018-08-23T09:51:34.624Z,3566.25
2018-08-23T09:52:34.601Z,3549.38
2018-08-23T09:53:34.589Z,3532.50
2018-08-23T09:54:34.580Z,3493.12
2018-08-23T09:55:34.567Z,3493.12
2018-08-23T09:56:34.628Z,2514.38
2018-08-23T09:57:34.547Z,781.88
2018-08-23T09:58:34.534Z,438.75
2018-08-23T09:59:34.524Z,427.50
2018-08-23T10:00:34.513Z,410.62
2018-08-23T10:01:34.513Z,438.75
2018-08-23T10:02:34.494Z,478.12
2018-08-23T10:03:34.477Z,495.00
2018-08-23T10:04:34.496Z,545.62
2018-08-23T10:05:34.469Z,517.50
2018-08-23T10:06:34.457Z,478.12
2018-08-23T10:07:34.440Z,427.50
2018-08-23T10:08:34.425Z,376.88
2018-08-23T10:09:34.417Z,348.75
2018-08-23T10:10:34.411Z,388.12
2018-08-23T10:11:34.415Z,393.75
2018-08-23T10:12:34.387Z,382.50
2018-08-23T10:13:34.374Z,382.50
2018-08-23T10:14:34.365Z,416.25
2018-08-23T10:15:34.351Z,393.75
2018-08-23T10:16:34.353Z,382.50
2018-08-23T10:17:34.331Z,371.25
2018-08-23T10:18:34.321Z,388.12
2018-08-23T10:19:34.309Z,393.75
2018-08-23T10:20:34.299Z,376.88
2018-08-23T10:21:34.308Z,376.88
2018-08-23T10:22:34.282Z,399.38
2018-08-23T10:23:34.268Z,393.75
2018-08-23T10:24:34.252Z,382.50
2018-08-23T10:25:34.244Z,371.25
2018-08-23T10:26:34.284Z,354.38
2018-08-23T10:27:34.222Z,365.62
2018-08-23T10:28:34.210Z,320.62
2018-08-23T10:29:34.199Z,320.62
2018-08-23T10:30:34.186Z,326.25
2018-08-23T10:31:34.188Z,309.38
2018-08-23T10:32:34.170Z,320.62
2018-08-23T10:33:34.159Z,309.38
2018-08-23T10:34:34.152Z,286.88
2018-08-23T10:35:34.134Z,281.25
2018-08-23T10:36:34.139Z,281.25
2018-08-23T10:37:34.110Z,281.25
2018-08-23T10:38:34.674Z,275.62
2018-08-23T10:39:34.089Z,275.62
2018-08-23T10:40:34.084Z,270.00
2018-08-23T10:41:34.091Z,264.38
2018-08-23T10:42:34.056Z,292.50
2018-08-23T10:43:34.048Z,331.88
2018-08-23T10:44:34.094Z,320.62
2018-08-23T10:45:34.030Z,303.75
2018-08-23T10:46:34.028Z,286.88
2018-08-23T10:47:34.003Z,292.50
2018-08-23T10:48:33.993Z,303.75
2018-08-23T10:49:33.983Z,343.12
2018-08-23T10:50:33.993Z,343.12
2018-08-23T10:51:33.973Z,303.75
2018-08-23T10:52:33.952Z,286.88
2018-08-23T10:53:33.940Z,281.25
2018-08-23T10:54:33.929Z,281.25
2018-08-23T10:55:33.917Z,286.88
2018-08-23T10:56:33.915Z,298.12
2018-08-23T10:57:33.896Z,292.50
2018-08-23T10:58:33.887Z,275.62
2018-08-23T10:59:33.873Z,270.00
2018-08-23T11:00:33.870Z,270.00
2018-08-23T11:01:33.862Z,281.25
2018-08-23T11:02:33.895Z,292.50
2018-08-23T11:03:33.831Z,309.38
2018-08-23T11:04:33.821Z,281.25
2018-08-23T11:05:33.808Z,292.50
2018-08-23T11:06:33.808Z,298.12
2018-08-23T11:07:33.788Z,320.62
2018-08-23T11:08:33.778Z,360.00
2018-08-23T11:09:33.813Z,337.50
2018-08-23T11:10:33.756Z,343.12
2018-08-23T11:11:33.758Z,303.75
2018-08-23T11:12:33.736Z,298.12
2018-08-23T11:13:33.722Z,303.75
2018-08-23T11:14:33.712Z,298.12
2018-08-23T11:15:33.702Z,275.62
2018-08-23T11:16:33.706Z,270.00
2018-08-23T11:17:33.680Z,270.00
2018-08-23T11:18:33.667Z,286.88
2018-08-23T11:19:33.658Z,298.12
2018-08-23T11:20:33.654Z,315.00
2018-08-23T11:21:33.649Z,320.62
2018-08-23T11:22:33.623Z,292.50
2018-08-23T11:23:33.616Z,258.75
2018-08-23T11:24:33.601Z,264.38
2018-08-23T11:25:33.593Z,275.62
2018-08-23T11:26:33.622Z,298.12
2018-08-23T11:27:33.570Z,298.12
2018-08-23T11:28:33.559Z,298.12
2018-08-23T11:29:33.578Z,337.50
2018-08-23T11:30:33.540Z,331.88
2018-08-23T11:31:33.537Z,326.25
2018-08-23T11:32:33.521Z,348.75
2018-08-23T11:33:33.518Z,326.25
2018-08-23T11:34:33.497Z,326.25
2018-08-23T11:35:33.498Z,315.00
2018-08-23T11:36:33.488Z,315.00
2018-08-23T11:37:33.462Z,354.38
2018-08-23T11:38:33.452Z,393.75
2018-08-23T11:39:33.441Z,382.50
2018-08-23T11:40:33.430Z,371.25
2018-08-23T11:41:33.430Z,331.88
2018-08-23T11:42:33.411Z,292.50
2018-08-23T11:43:33.401Z,281.25
2018-08-23T11:44:33.388Z,286.88
2018-08-23T11:45:33.377Z,292.50
2018-08-23T11:46:33.398Z,298.12
2018-08-23T11:47:33.356Z,286.88
2018-08-23T11:48:33.347Z,275.62
2018-08-23T11:49:33.333Z,247.50
2018-08-23T11:50:33.322Z,286.88
2018-08-23T11:51:33.311Z,275.62
2018-08-23T11:52:33.316Z,258.75
2018-08-23T11:53:33.506Z,292.50
2018-08-23T11:54:33.282Z,331.88
2018-08-23T11:55:33.270Z,343.12
2018-08-23T11:56:33.257Z,382.50
2018-08-23T11:57:33.257Z,399.38
2018-08-23T11:58:33.266Z,438.75
2018-08-23T11:59:33.225Z,410.62
2018-08-23T12:00:33.215Z,354.38
2018-08-23T12:01:33.204Z,337.50
2018-08-23T12:02:33.205Z,348.75
2018-08-23T12:03:33.183Z,303.75
2018-08-23T12:04:33.169Z,275.62
2018-08-23T12:05:33.162Z,275.62
2018-08-23T12:06:33.205Z,292.50
2018-08-23T12:07:33.148Z,275.62
2018-08-23T12:08:33.130Z,230.62
2018-08-23T12:09:33.118Z,213.75
2018-08-23T12:10:33.106Z,236.25
2018-08-23T12:11:33.094Z,219.38
2018-08-23T12:12:33.097Z,208.12
2018-08-23T12:13:33.076Z,208.12
2018-08-23T12:14:33.064Z,208.12
2018-08-23T12:15:33.123Z,180.00
2018-08-23T12:16:33.040Z,146.25
2018-08-23T12:17:33.040Z,112.50
2018-08-23T12:18:33.023Z,101.25
2018-08-23T12:19:33.010Z,90.00
2018-08-23T12:20:32.996Z,84.38
2018-08-23T12:21:32.988Z,78.75
2018-08-23T12:22:32.989Z,78.75
2018-08-23T12:23:32.967Z,78.75
2018-08-23T12:24:32.958Z,90.00
2018-08-23T12:25:33.023Z,90.00
2018-08-23T12:26:32.976Z,90.00
2018-08-23T12:27:32.932Z,95.62
2018-08-23T12:28:32.910Z,95.62
2018-08-23T12:29:32.902Z,95.62
2018-08-23T12:30:32.892Z,95.62
2018-08-23T12:31:32.936Z,90.00
2018-08-23T12:32:32.878Z,84.38
2018-08-23T12:33:32.861Z,84.38
2018-08-23T12:34:32.845Z,90.00
2018-08-23T12:35:32.838Z,95.62
2018-08-23T12:36:32.824Z,106.88
2018-08-23T12:37:32.858Z,112.50
2018-08-23T12:38:32.803Z,106.88
2018-08-23T12:39:32.793Z,101.25
2018-08-23T12:40:32.787Z,95.62
2018-08-23T12:41:32.770Z,90.00
2018-08-23T12:42:32.774Z,84.38
2018-08-23T12:43:32.853Z,84.38
2018-08-23T12:44:32.749Z,78.75
2018-08-23T12:45:32.728Z,84.38
2018-08-23T12:46:32.734Z,84.38
2018-08-23T12:47:32.717Z,78.75
2018-08-23T12:48:32.694Z,84.38
2018-08-23T12:49:32.734Z,84.38
2018-08-23T12:50:32.674Z,90.00
2018-08-23T12:51:32.662Z,90.00
2018-08-23T12:52:32.674Z,90.00
2018-08-23T12:53:32.640Z,90.00
2018-08-23T12:54:32.634Z,90.00
2018-08-23T12:55:32.620Z,90.00
2018-08-23T12:56:32.672Z,90.00
2018-08-23T12:57:32.597Z,90.00
2018-08-23T12:58:32.598Z,90.00
2018-08-23T12:59:32.576Z,90.00
2018-08-23T13:00:32.564Z,90.00
2018-08-23T13:01:32.584Z,84.38
2018-08-23T13:02:32.746Z,84.38
2018-08-23T13:03:32.600Z,84.38
2018-08-23T13:04:32.521Z,84.38
2018-08-23T13:05:32.510Z,78.75
2018-08-23T13:06:32.506Z,73.12
2018-08-23T13:07:32.572Z,73.12
2018-08-23T13:08:34.150Z,78.75
2018-08-23T13:09:32.469Z,84.38
2018-08-23T13:10:32.552Z,95.62
2018-08-23T13:11:32.454Z,101.25
2018-08-23T13:12:32.681Z,95.62
2018-08-23T13:13:32.444Z,90.00
2018-08-23T13:14:32.535Z,84.38
2018-08-23T13:15:32.406Z,78.75
2018-08-23T13:16:32.392Z,61.88
2018-08-23T13:17:32.406Z,67.50
2018-08-23T13:18:32.521Z,95.62
2018-08-23T13:19:32.361Z,163.12
2018-08-23T13:20:32.394Z,140.62
2018-08-23T13:21:32.725Z,123.75
2018-08-23T13:22:32.445Z,202.50
2018-08-23T13:23:32.653Z,298.12
2018-08-23T13:24:32.309Z,360.00
2018-08-23T13:25:32.295Z,343.12
2018-08-23T13:26:32.284Z,275.62
2018-08-23T13:27:32.382Z,270.00
2018-08-23T13:28:32.493Z,303.75
2018-08-23T13:29:32.272Z,343.12
2018-08-23T13:30:32.245Z,393.75
2018-08-23T13:31:32.231Z,410.62
2018-08-23T13:32:32.221Z,410.62
2018-08-23T13:33:32.209Z,405.00
2018-08-23T13:34:32.210Z,399.38
2018-08-23T13:35:32.271Z,405.00
2018-08-23T13:36:32.250Z,371.25
2018-08-23T13:37:32.171Z,348.75
2018-08-23T13:38:32.154Z,331.88
2018-08-23T13:39:32.155Z,292.50
2018-08-23T13:40:32.287Z,281.25
2018-08-23T13:41:32.258Z,281.25
2018-08-23T13:42:32.273Z,264.38
2018-08-23T13:43:32.243Z,241.88
2018-08-23T13:44:32.217Z,230.62
2018-08-23T13:45:32.288Z,236.25
2018-08-23T13:46:32.151Z,247.50
2018-08-23T13:47:32.065Z,247.50
2018-08-23T13:48:32.164Z,241.88
2018-08-23T13:49:32.048Z,236.25
2018-08-23T13:50:32.026Z,225.00
2018-08-23T13:51:32.026Z,247.50
2018-08-23T13:52:32.030Z,253.12
2018-08-23T13:53:32.161Z,230.62
2018-08-23T13:54:31.996Z,219.38
2018-08-23T13:55:31.972Z,208.12
2018-08-23T13:56:31.962Z,202.50
2018-08-23T13:57:31.949Z,202.50
2018-08-23T13:58:31.960Z,191.25
2018-08-23T13:59:31.943Z,180.00
2018-08-23T14:00:31.920Z,208.12
2018-08-23T14:01:31.911Z,230.62
2018-08-23T14:02:31.964Z,219.38
2018-08-23T14:03:31.887Z,202.50
2018-08-23T14:04:31.888Z,185.62
2018-08-23T14:05:31.864Z,191.25
2018-08-23T14:06:31.936Z,185.62
2018-08-23T14:07:31.851Z,196.88
2018-08-23T14:08:31.836Z,168.75
2018-08-23T14:09:32.234Z,129.38
2018-08-23T14:10:31.810Z,90.00
2018-08-23T14:11:31.798Z,84.38
2018-08-23T14:12:31.790Z,78.75
2018-08-23T14:13:31.777Z,106.88
2018-08-23T14:14:31.776Z,123.75
2018-08-23T14:15:31.756Z,106.88
2018-08-23T14:16:31.744Z,78.75
2018-08-23T14:17:31.840Z,61.88
2018-08-23T14:18:31.722Z,45.00
2018-08-23T14:19:31.741Z,45.00
2018-08-23T14:20:31.744Z,39.38
2018-08-23T14:21:31.691Z,33.75
2018-08-23T14:22:31.681Z,22.50
2018-08-23T14:23:31.674Z,22.50
2018-08-23T14:24:31.657Z,22.50
2018-08-23T14:25:31.659Z,22.50
2018-08-23T14:26:31.711Z,16.88
2018-08-23T14:27:31.627Z,22.50
2018-08-23T14:28:31.727Z,22.50
2018-08-23T14:29:31.602Z,22.50
2018-08-23T14:30:31.608Z,22.50
2018-08-23T14:31:31.582Z,22.50
2018-08-23T14:32:31.601Z,22.50
2018-08-23T14:33:31.561Z,22.50
2018-08-23T14:34:31.638Z,22.50
2018-08-23T14:35:31.551Z,28.12
2018-08-23T14:36:31.644Z,33.75
2018-08-23T14:37:31.629Z,33.75
2018-08-23T14:38:31.563Z,39.38
2018-08-23T14:39:31.493Z,50.62
2018-08-23T14:40:31.505Z,56.25
2018-08-23T14:41:31.475Z,67.50
2018-08-23T14:42:31.466Z,73.12
2018-08-23T14:43:31.451Z,84.38
2018-08-23T14:44:31.440Z,95.62
2018-08-23T14:45:31.440Z,101.25
2018-08-23T14:46:31.433Z,95.62
2018-08-23T14:47:31.409Z,90.00
2018-08-23T14:48:31.398Z,84.38
2018-08-23T14:49:31.385Z,78.75
2018-08-23T14:50:31.388Z,78.75
2018-08-23T14:51:31.369Z,67.50
2018-08-23T14:52:31.354Z,61.88
2018-08-23T14:53:31.813Z,61.88
2018-08-23T14:54:31.404Z,56.25
2018-08-23T14:55:31.465Z,56.25
2018-08-23T14:56:31.311Z,56.25
2018-08-23T14:57:31.303Z,61.88
2018-08-23T14:58:31.287Z,67.50
2018-08-23T14:59:31.279Z,78.75
2018-08-23T15:00:31.281Z,95.62
2018-08-23T15:01:31.257Z,101.25
2018-08-23T15:02:31.246Z,101.25
2018-08-23T15:03:31.233Z,106.88
2018-08-23T15:04:31.224Z,123.75
2018-08-23T15:05:31.224Z,146.25
2018-08-23T15:06:31.201Z,151.88
2018-08-23T15:07:31.216Z,157.50
2018-08-23T15:08:31.181Z,157.50
2018-08-23T15:09:31.231Z,146.25
2018-08-23T15:10:31.198Z,129.38
2018-08-23T15:11:31.147Z,140.62
2018-08-23T15:12:31.138Z,157.50
2018-08-23T15:13:31.125Z,163.12
2018-08-23T15:14:31.152Z,157.50
2018-08-23T15:15:31.179Z,157.50
2018-08-23T15:16:31.104Z,157.50
2018-08-23T15:17:31.084Z,151.88
2018-08-23T15:18:31.073Z,151.88
2018-08-23T15:19:31.062Z,146.25
2018-08-23T15:20:31.050Z,129.38
2018-08-23T15:21:31.052Z,118.12
2018-08-23T15:22:31.030Z,112.50
2018-08-23T15:23:31.018Z,106.88
2018-08-23T15:24:31.008Z,106.88
2018-08-23T15:25:31.073Z,106.88
2018-08-23T15:26:31.293Z,101.25
2018-08-23T15:27:30.977Z,95.62
2018-08-23T15:28:30.984Z,90.00
2018-08-23T15:29:30.956Z,84.38
2018-08-23T15:30:30.940Z,78.75
2018-08-23T15:31:30.943Z,73.12
2018-08-23T15:32:30.922Z,61.88
2018-08-23T15:33:30.909Z,56.25
2018-08-23T15:34:30.899Z,50.62
2018-08-23T15:35:30.889Z,50.62
2018-08-23T15:36:30.889Z,50.62
2018-08-23T15:37:30.866Z,50.62
2018-08-23T15:38:30.855Z,50.62
2018-08-23T15:39:30.918Z,50.62
2018-08-23T15:40:30.838Z,50.62
2018-08-23T15:41:30.831Z,50.62
2018-08-23T15:42:30.824Z,45.00
2018-08-23T15:43:30.802Z,45.00
2018-08-23T15:44:30.788Z,45.00
2018-08-23T15:45:30.781Z,45.00
2018-08-23T15:46:30.813Z,45.00
2018-08-23T15:47:30.757Z,39.38
2018-08-23T15:48:30.746Z,39.38
2018-08-23T15:49:30.734Z,39.38
2018-08-23T15:50:30.724Z,33.75
2018-08-23T15:51:30.724Z,33.75
2018-08-23T15:52:30.701Z,33.75
2018-08-23T15:53:30.692Z,33.75
2018-08-23T15:54:30.682Z,33.75
2018-08-23T15:55:30.804Z,33.75
2018-08-23T15:56:30.672Z,33.75
2018-08-23T15:57:30.655Z,33.75
2018-08-23T15:58:30.639Z,33.75
2018-08-23T15:59:30.631Z,39.38
2018-08-23T16:00:30.616Z,39.38
2018-08-23T16:01:30.869Z,33.75
2018-08-23T16:02:30.668Z,33.75
2018-08-23T16:03:30.585Z,33.75
2018-08-23T16:04:30.571Z,33.75
2018-08-23T16:05:30.644Z,33.75
2018-08-23T16:06:30.562Z,39.38
2018-08-23T16:07:30.540Z,39.38
2018-08-23T16:08:30.543Z,39.38
2018-08-23T16:09:30.518Z,39.38
2018-08-23T16:10:30.507Z,39.38
2018-08-23T16:11:30.507Z,45.00
2018-08-23T16:12:30.489Z,45.00
2018-08-23T16:13:30.498Z,45.00
2018-08-23T16:14:30.468Z,50.62
2018-08-23T16:15:30.453Z,45.00
2018-08-23T16:16:30.453Z,45.00
2018-08-23T16:17:30.432Z,39.38
2018-08-23T16:18:30.422Z,39.38
2018-08-23T16:19:30.411Z,33.75
2018-08-23T16:20:30.401Z,28.12
2018-08-23T16:21:30.403Z,28.12
2018-08-23T16:22:30.941Z,28.12
2018-08-23T16:23:30.387Z,33.75
2018-08-23T16:24:30.355Z,33.75
2018-08-23T16:25:30.355Z,39.38
2018-08-23T16:26:30.347Z,39.38
2018-08-23T16:27:30.327Z,39.38
2018-08-23T16:28:30.316Z,39.38
2018-08-23T16:29:30.303Z,45.00
2018-08-23T16:30:30.294Z,50.62
2018-08-23T16:31:30.292Z,56.25
2018-08-23T16:32:30.272Z,56.25
2018-08-23T16:33:30.260Z,61.88
2018-08-23T16:34:30.252Z,61.88
2018-08-23T16:35:30.239Z,67.50